sensor_id;sensor_type;location;lat;lon;timestamp;P1;durP1;ratioP1;P2;durP2;ratioP2
48797;SDS011;34610;44.096;39.070;2023-01-15T00:01:51;29.13;;;14.93;;
48797;SDS011;34610;44.096;39.070;2023-01-15T00:04:56;49.60;;;21.35;;
48797;SDS011;34610;44.096;39.070;2023-01-15T00:08:01;51.85;;;21.85;;
48797;SDS011;34610;44.096;39.070;2023-01-15T00:11:08;59.75;;;23.70;;
48797;SDS011;34610;44.096;39.070;2023-01-15T00:14:12;50.45;;;20.83;;
48797;SDS011;34610;44.096;39.070;2023-01-15T00:17:19;52.35;;;21.88;;
48797;SDS011;34610;44.096;39.070;2023-01-15T00:20:25;51.88;;;23.58;;
48797;SDS011;34610;44.096;39.070;2023-01-15T00:23:32;39.35;;;18.20;;
48797;SDS011;34610;44.096;39.070;2023-01-15T00:26:55;48.22;;;22.40;;
48797;SDS011;34610;44.096;39.070;2023-01-15T00:30:23;52.10;;;21.10;;
48797;SDS011;34610;44.096;39.070;2023-01-15T00:33:28;35.17;;;16.27;;
48797;SDS011;34610;44.096;39.070;2023-01-15T00:36:35;46.30;;;20.20;;
48797;SDS011;34610;44.096;39.070;2023-01-15T00:39:43;43.88;;;18.38;;
48797;SDS011;34610;44.096;39.070;2023-01-15T00:42:48;43.40;;;19.33;;
48797;SDS011;34610;44.096;39.070;2023-01-15T00:45:54;54.08;;;23.02;;
48797;SDS011;34610;44.096;39.070;2023-01-15T00:49:00;48.42;;;22.17;;
48797;SDS011;34610;44.096;39.070;2023-01-15T00:52:04;52.08;;;20.02;;
48797;SDS011;34610;44.096;39.070;2023-01-15T00:55:09;51.15;;;20.23;;
48797;SDS011;34610;44.096;39.070;2023-01-15T00:58:13;51.08;;;22.48;;
48797;SDS011;34610;44.096;39.070;2023-01-15T01:01:20;34.83;;;16.83;;
48797;SDS011;34610;44.096;39.070;2023-01-15T01:04:24;24.17;;;12.50;;
48797;SDS011;34610;44.096;39.070;2023-01-15T01:07:29;46.97;;;20.02;;
48797;SDS011;34610;44.096;39.070;2023-01-15T01:10:33;46.70;;;20.33;;
48797;SDS011;34610;44.096;39.070;2023-01-15T01:13:41;28.95;;;14.48;;
48797;SDS011;34610;44.096;39.070;2023-01-15T01:16:46;45.60;;;18.98;;
48797;SDS011;34610;44.096;39.070;2023-01-15T01:19:57;38.95;;;17.42;;
48797;SDS011;34610;44.096;39.070;2023-01-15T01:23:01;37.47;;;17.40;;
48797;SDS011;34610;44.096;39.070;2023-01-15T01:26:07;46.80;;;20.48;;
48797;SDS011;34610;44.096;39.070;2023-01-15T01:29:15;43.22;;;18.13;;
48797;SDS011;34610;44.096;39.070;2023-01-15T01:32:20;43.70;;;19.42;;
48797;SDS011;34610;44.096;39.070;2023-01-15T01:35:25;41.33;;;20.05;;
48797;SDS011;34610;44.096;39.070;2023-01-15T01:38:30;40.92;;;17.35;;
48797;SDS011;34610;44.096;39.070;2023-01-15T01:41:36;29.83;;;12.52;;
48797;SDS011;34610;44.096;39.070;2023-01-15T01:47:49;36.47;;;14.88;;
48797;SDS011;34610;44.096;39.070;2023-01-15T01:50:55;34.33;;;15.57;;
48797;SDS011;34610;44.096;39.070;2023-01-15T01:54:02;23.88;;;12.05;;
48797;SDS011;34610;44.096;39.070;2023-01-15T01:57:06;36.83;;;16.00;;
48797;SDS011;34610;44.096;39.070;2023-01-15T02:00:12;43.50;;;18.02;;
48797;SDS011;34610;44.096;39.070;2023-01-15T02:03:19;24.60;;;10.43;;
48797;SDS011;34610;44.096;39.070;2023-01-15T02:06:24;30.10;;;15.32;;
48797;SDS011;34610;44.096;39.070;2023-01-15T02:09:30;31.75;;;13.93;;
48797;SDS011;34610;44.096;39.070;2023-01-15T02:12:37;28.90;;;15.32;;
48797;SDS011;34610;44.096;39.070;2023-01-15T02:15:47;38.55;;;17.23;;
48797;SDS011;34610;44.096;39.070;2023-01-15T02:25:11;31.83;;;15.40;;
48797;SDS011;34610;44.096;39.070;2023-01-15T02:28:23;25.67;;;11.90;;
48797;SDS011;34610;44.096;39.070;2023-01-15T02:31:35;34.00;;;15.82;;
48797;SDS011;34610;44.096;39.070;2023-01-15T02:34:45;26.70;;;12.82;;
48797;SDS011;34610;44.096;39.070;2023-01-15T02:37:53;28.35;;;12.25;;
48797;SDS011;34610;44.096;39.070;2023-01-15T02:41:01;32.80;;;14.23;;
48797;SDS011;34610;44.096;39.070;2023-01-15T02:44:09;28.23;;;13.98;;
48797;SDS011;34610;44.096;39.070;2023-01-15T02:47:16;25.45;;;12.20;;
48797;SDS011;34610;44.096;39.070;2023-01-15T02:50:24;26.73;;;13.15;;
48797;SDS011;34610;44.096;39.070;2023-01-15T02:53:31;33.50;;;14.25;;
48797;SDS011;34610;44.096;39.070;2023-01-15T02:56:38;27.23;;;10.85;;
48797;SDS011;34610;44.096;39.070;2023-01-15T02:59:44;24.80;;;11.05;;
48797;SDS011;34610;44.096;39.070;2023-01-15T03:02:53;36.08;;;15.57;;
48797;SDS011;34610;44.096;39.070;2023-01-15T03:06:10;11.73;;;7.32;;
48797;SDS011;34610;44.096;39.070;2023-01-15T03:09:19;30.08;;;14.60;;
48797;SDS011;34610;44.096;39.070;2023-01-15T03:12:29;31.08;;;14.63;;
48797;SDS011;34610;44.096;39.070;2023-01-15T03:22:27;30.92;;;14.25;;
48797;SDS011;34610;44.096;39.070;2023-01-15T03:25:41;30.58;;;14.55;;
48797;SDS011;34610;44.096;39.070;2023-01-15T03:28:48;29.00;;;13.40;;
48797;SDS011;34610;44.096;39.070;2023-01-15T03:31:54;38.85;;;15.75;;
48797;SDS011;34610;44.096;39.070;2023-01-15T03:35:04;11.88;;;6.13;;
48797;SDS011;34610;44.096;39.070;2023-01-15T03:38:12;34.20;;;14.88;;
48797;SDS011;34610;44.096;39.070;2023-01-15T03:41:24;26.60;;;10.68;;
48797;SDS011;34610;44.096;39.070;2023-01-15T03:44:39;22.15;;;10.75;;
48797;SDS011;34610;44.096;39.070;2023-01-15T03:48:06;30.67;;;11.43;;
48797;SDS011;34610;44.096;39.070;2023-01-15T03:57:50;24.60;;;11.98;;
48797;SDS011;34610;44.096;39.070;2023-01-15T04:01:00;31.90;;;14.13;;
48797;SDS011;34610;44.096;39.070;2023-01-15T04:04:10;37.00;;;15.57;;
48797;SDS011;34610;44.096;39.070;2023-01-15T04:07:18;35.60;;;16.83;;
48797;SDS011;34610;44.096;39.070;2023-01-15T04:10:26;41.95;;;17.90;;
48797;SDS011;34610;44.096;39.070;2023-01-15T04:13:34;36.10;;;16.40;;
48797;SDS011;34610;44.096;39.070;2023-01-15T04:16:41;33.17;;;15.52;;
48797;SDS011;34610;44.096;39.070;2023-01-15T04:19:47;21.33;;;10.20;;
48797;SDS011;34610;44.096;39.070;2023-01-15T04:22:52;38.25;;;16.60;;
48797;SDS011;34610;44.096;39.070;2023-01-15T04:25:56;42.08;;;15.30;;
48797;SDS011;34610;44.096;39.070;2023-01-15T04:29:00;30.33;;;12.88;;
48797;SDS011;34610;44.096;39.070;2023-01-15T04:32:07;35.33;;;14.73;;
48797;SDS011;34610;44.096;39.070;2023-01-15T04:35:14;36.83;;;15.13;;
48797;SDS011;34610;44.096;39.070;2023-01-15T04:38:18;38.95;;;17.00;;
48797;SDS011;34610;44.096;39.070;2023-01-15T04:41:25;29.63;;;12.95;;
48797;SDS011;34610;44.096;39.070;2023-01-15T04:44:48;28.45;;;11.32;;
48797;SDS011;34610;44.096;39.070;2023-01-15T04:47:55;20.35;;;9.05;;
48797;SDS011;34610;44.096;39.070;2023-01-15T04:51:03;32.78;;;12.75;;
48797;SDS011;34610;44.096;39.070;2023-01-15T04:54:10;47.35;;;17.63;;
48797;SDS011;34610;44.096;39.070;2023-01-15T04:57:15;40.17;;;17.63;;
48797;SDS011;34610;44.096;39.070;2023-01-15T05:00:20;16.13;;;7.93;;
48797;SDS011;34610;44.096;39.070;2023-01-15T05:03:26;43.92;;;17.70;;
48797;SDS011;34610;44.096;39.070;2023-01-15T05:06:32;32.72;;;15.40;;
48797;SDS011;34610;44.096;39.070;2023-01-15T05:09:39;46.97;;;19.42;;
48797;SDS011;34610;44.096;39.070;2023-01-15T05:12:43;13.18;;;4.93;;
48797;SDS011;34610;44.096;39.070;2023-01-15T05:15:49;29.13;;;13.00;;
48797;SDS011;34610;44.096;39.070;2023-01-15T05:18:57;29.63;;;13.35;;
48797;SDS011;34610;44.096;39.070;2023-01-15T05:22:02;36.78;;;15.02;;
48797;SDS011;34610;44.096;39.070;2023-01-15T05:25:11;34.30;;;14.77;;
48797;SDS011;34610;44.096;39.070;2023-01-15T05:28:15;45.55;;;18.80;;
48797;SDS011;34610;44.096;39.070;2023-01-15T05:31:26;38.75;;;15.57;;
48797;SDS011;34610;44.096;39.070;2023-01-15T05:34:32;7.82;;;5.03;;
48797;SDS011;34610;44.096;39.070;2023-01-15T05:37:37;28.10;;;12.57;;
48797;SDS011;34610;44.096;39.070;2023-01-15T05:40:43;39.33;;;14.43;;
48797;SDS011;34610;44.096;39.070;2023-01-15T05:43:48;34.58;;;15.23;;
48797;SDS011;34610;44.096;39.070;2023-01-15T05:46:54;32.38;;;15.10;;
48797;SDS011;34610;44.096;39.070;2023-01-15T05:50:08;15.48;;;8.88;;
48797;SDS011;34610;44.096;39.070;2023-01-15T05:53:13;36.38;;;13.50;;
48797;SDS011;34610;44.096;39.070;2023-01-15T05:56:17;33.13;;;14.88;;
48797;SDS011;34610;44.096;39.070;2023-01-15T05:59:23;33.33;;;15.20;;
48797;SDS011;34610;44.096;39.070;2023-01-15T06:02:27;43.60;;;18.30;;
48797;SDS011;34610;44.096;39.070;2023-01-15T06:05:37;22.15;;;11.48;;
48797;SDS011;34610;44.096;39.070;2023-01-15T06:08:41;34.83;;;14.98;;
48797;SDS011;34610;44.096;39.070;2023-01-15T06:11:45;29.23;;;15.50;;
48797;SDS011;34610;44.096;39.070;2023-01-15T06:14:52;27.58;;;12.65;;
48797;SDS011;34610;44.096;39.070;2023-01-15T06:18:09;27.70;;;12.40;;
48797;SDS011;34610;44.096;39.070;2023-01-15T06:21:19;28.02;;;14.05;;
48797;SDS011;34610;44.096;39.070;2023-01-15T06:24:23;37.30;;;14.85;;
48797;SDS011;34610;44.096;39.070;2023-01-15T06:27:28;22.30;;;11.60;;
48797;SDS011;34610;44.096;39.070;2023-01-15T06:30:32;31.20;;;12.65;;
48797;SDS011;34610;44.096;39.070;2023-01-15T06:33:37;19.52;;;9.88;;
48797;SDS011;34610;44.096;39.070;2023-01-15T06:36:44;20.67;;;8.75;;
48797;SDS011;34610;44.096;39.070;2023-01-15T06:39:52;24.52;;;10.65;;
48797;SDS011;34610;44.096;39.070;2023-01-15T06:43:00;17.75;;;9.73;;
48797;SDS011;34610;44.096;39.070;2023-01-15T06:46:23;21.50;;;10.63;;
48797;SDS011;34610;44.096;39.070;2023-01-15T06:49:48;18.17;;;9.40;;
48797;SDS011;34610;44.096;39.070;2023-01-15T06:52:53;21.88;;;11.27;;
48797;SDS011;34610;44.096;39.070;2023-01-15T06:55:57;15.38;;;8.63;;
48797;SDS011;34610;44.096;39.070;2023-01-15T06:59:05;8.05;;;5.70;;
48797;SDS011;34610;44.096;39.070;2023-01-15T07:02:12;12.90;;;6.35;;
48797;SDS011;34610;44.096;39.070;2023-01-15T07:05:17;15.10;;;7.75;;
48797;SDS011;34610;44.096;39.070;2023-01-15T07:08:22;23.38;;;12.65;;
48797;SDS011;34610;44.096;39.070;2023-01-15T07:11:27;16.38;;;8.30;;
48797;SDS011;34610;44.096;39.070;2023-01-15T07:14:34;20.20;;;10.90;;
48797;SDS011;34610;44.096;39.070;2023-01-15T07:20:47;16.35;;;7.85;;
48797;SDS011;34610;44.096;39.070;2023-01-15T07:23:52;23.00;;;9.10;;
48797;SDS011;34610;44.096;39.070;2023-01-15T07:35:48;12.60;;;6.80;;
48797;SDS011;34610;44.096;39.070;2023-01-15T07:38:52;18.52;;;8.80;;
48797;SDS011;34610;44.096;39.070;2023-01-15T07:41:59;21.88;;;9.60;;
48797;SDS011;34610;44.096;39.070;2023-01-15T07:45:28;20.50;;;9.15;;
48797;SDS011;34610;44.096;39.070;2023-01-15T07:54:24;27.40;;;11.95;;
48797;SDS011;34610;44.096;39.070;2023-01-15T07:57:29;23.75;;;11.32;;
48797;SDS011;34610;44.096;39.070;2023-01-15T08:00:34;24.70;;;10.07;;
48797;SDS011;34610;44.096;39.070;2023-01-15T08:03:38;28.42;;;8.70;;
48797;SDS011;34610;44.096;39.070;2023-01-15T08:06:43;21.85;;;10.60;;
48797;SDS011;34610;44.096;39.070;2023-01-15T08:09:48;26.20;;;10.43;;
48797;SDS011;34610;44.096;39.070;2023-01-15T08:13:00;18.17;;;9.70;;
48797;SDS011;34610;44.096;39.070;2023-01-15T08:16:25;15.60;;;8.95;;
48797;SDS011;34610;44.096;39.070;2023-01-15T08:19:29;15.52;;;9.07;;
48797;SDS011;34610;44.096;39.070;2023-01-15T08:22:33;18.77;;;8.60;;
48797;SDS011;34610;44.096;39.070;2023-01-15T08:25:38;17.42;;;8.90;;
48797;SDS011;34610;44.096;39.070;2023-01-15T08:28:43;17.38;;;9.43;;
48797;SDS011;34610;44.096;39.070;2023-01-15T08:31:47;19.70;;;10.05;;
48797;SDS011;34610;44.096;39.070;2023-01-15T08:34:53;14.43;;;8.05;;
48797;SDS011;34610;44.096;39.070;2023-01-15T08:37:58;14.57;;;8.15;;
48797;SDS011;34610;44.096;39.070;2023-01-15T08:41:02;18.58;;;7.85;;
48797;SDS011;34610;44.096;39.070;2023-01-15T08:44:10;15.35;;;7.60;;
48797;SDS011;34610;44.096;39.070;2023-01-15T08:47:19;17.75;;;8.05;;
48797;SDS011;34610;44.096;39.070;2023-01-15T08:50:25;12.70;;;7.40;;
48797;SDS011;34610;44.096;39.070;2023-01-15T08:53:30;15.90;;;7.80;;
48797;SDS011;34610;44.096;39.070;2023-01-15T08:56:35;15.13;;;7.00;;
48797;SDS011;34610;44.096;39.070;2023-01-15T08:59:50;20.13;;;7.32;;
48797;SDS011;34610;44.096;39.070;2023-01-15T09:02:56;16.73;;;7.32;;
48797;SDS011;34610;44.096;39.070;2023-01-15T09:06:01;14.85;;;6.63;;
48797;SDS011;34610;44.096;39.070;2023-01-15T09:09:08;15.50;;;5.03;;
48797;SDS011;34610;44.096;39.070;2023-01-15T09:12:13;7.47;;;3.78;;
48797;SDS011;34610;44.096;39.070;2023-01-15T09:15:20;11.32;;;4.95;;
48797;SDS011;34610;44.096;39.070;2023-01-15T09:18:27;16.27;;;6.40;;
48797;SDS011;34610;44.096;39.070;2023-01-15T09:21:32;9.65;;;5.40;;
48797;SDS011;34610;44.096;39.070;2023-01-15T09:24:42;10.48;;;6.15;;
48797;SDS011;34610;44.096;39.070;2023-01-15T09:27:49;5.68;;;4.20;;
48797;SDS011;34610;44.096;39.070;2023-01-15T09:30:53;8.30;;;5.10;;
48797;SDS011;34610;44.096;39.070;2023-01-15T09:34:00;12.27;;;6.55;;
48797;SDS011;34610;44.096;39.070;2023-01-15T09:37:05;7.50;;;5.25;;
48797;SDS011;34610;44.096;39.070;2023-01-15T09:40:19;9.35;;;4.65;;
48797;SDS011;34610;44.096;39.070;2023-01-15T09:46:59;15.02;;;7.20;;
48797;SDS011;34610;44.096;39.070;2023-01-15T09:50:22;8.43;;;4.07;;
48797;SDS011;34610;44.096;39.070;2023-01-15T10:02:26;5.68;;;4.18;;
48797;SDS011;34610;44.096;39.070;2023-01-15T10:08:50;8.43;;;4.68;;
48797;SDS011;34610;44.096;39.070;2023-01-15T10:15:45;11.48;;;4.82;;
48797;SDS011;34610;44.096;39.070;2023-01-15T10:19:03;8.52;;;6.07;;
48797;SDS011;34610;44.096;39.070;2023-01-15T10:22:20;7.15;;;4.50;;
48797;SDS011;34610;44.096;39.070;2023-01-15T10:25:30;10.50;;;5.38;;
48797;SDS011;34610;44.096;39.070;2023-01-15T10:28:44;8.40;;;5.13;;
48797;SDS011;34610;44.096;39.070;2023-01-15T10:32:01;8.85;;;4.40;;
48797;SDS011;34610;44.096;39.070;2023-01-15T10:35:19;8.98;;;4.90;;
48797;SDS011;34610;44.096;39.070;2023-01-15T10:51:47;10.65;;;6.85;;
48797;SDS011;34610;44.096;39.070;2023-01-15T10:55:13;11.45;;;5.75;;
48797;SDS011;34610;44.096;39.070;2023-01-15T10:58:42;7.93;;;4.82;;
48797;SDS011;34610;44.096;39.070;2023-01-15T11:01:51;10.40;;;4.93;;
48797;SDS011;34610;44.096;39.070;2023-01-15T11:05:00;12.35;;;5.53;;
48797;SDS011;34610;44.096;39.070;2023-01-15T11:08:12;7.80;;;4.72;;
48797;SDS011;34610;44.096;39.070;2023-01-15T11:14:45;8.48;;;4.53;;
48797;SDS011;34610;44.096;39.070;2023-01-15T11:18:12;10.23;;;4.82;;
48797;SDS011;34610;44.096;39.070;2023-01-15T11:21:39;7.68;;;4.53;;
48797;SDS011;34610;44.096;39.070;2023-01-15T11:24:52;9.55;;;4.72;;
48797;SDS011;34610;44.096;39.070;2023-01-15T11:27:59;9.63;;;4.65;;
48797;SDS011;34610;44.096;39.070;2023-01-15T11:31:06;10.18;;;5.03;;
48797;SDS011;34610;44.096;39.070;2023-01-15T11:34:22;11.55;;;5.10;;
48797;SDS011;34610;44.096;39.070;2023-01-15T11:37:30;9.00;;;4.97;;
48797;SDS011;34610;44.096;39.070;2023-01-15T11:40:37;12.07;;;5.57;;
48797;SDS011;34610;44.096;39.070;2023-01-15T11:44:00;9.70;;;5.03;;
48797;SDS011;34610;44.096;39.070;2023-01-15T11:47:25;6.70;;;4.78;;
48797;SDS011;34610;44.096;39.070;2023-01-15T11:51:00;8.90;;;4.72;;
48797;SDS011;34610;44.096;39.070;2023-01-15T11:54:26;7.10;;;4.35;;
48797;SDS011;34610;44.096;39.070;2023-01-15T11:57:34;8.93;;;4.75;;
48797;SDS011;34610;44.096;39.070;2023-01-15T12:00:41;7.53;;;4.05;;
48797;SDS011;34610;44.096;39.070;2023-01-15T12:03:49;11.30;;;4.55;;
48797;SDS011;34610;44.096;39.070;2023-01-15T12:29:31;26.38;;;6.10;;
48797;SDS011;34610;44.096;39.070;2023-01-15T12:32:18;13.57;;;5.25;;
48797;SDS011;34610;44.096;39.070;2023-01-15T12:35:30;16.52;;;5.00;;
48797;SDS011;34610;44.096;39.070;2023-01-15T12:38:41;10.18;;;4.68;;
48797;SDS011;34610;44.096;39.070;2023-01-15T12:41:56;17.52;;;6.38;;
48797;SDS011;34610;44.096;39.070;2023-01-15T12:45:28;17.23;;;7.97;;
48797;SDS011;34610;44.096;39.070;2023-01-15T12:49:05;9.85;;;4.80;;
48797;SDS011;34610;44.096;39.070;2023-01-15T12:52:20;13.07;;;5.15;;
48797;SDS011;34610;44.096;39.070;2023-01-15T12:55:30;19.15;;;5.60;;
48797;SDS011;34610;44.096;39.070;2023-01-15T12:58:53;19.15;;;5.47;;
48797;SDS011;34610;44.096;39.070;2023-01-15T13:02:16;24.10;;;15.90;;
48797;SDS011;34610;44.096;39.070;2023-01-15T13:05:33;25.38;;;6.00;;
48797;SDS011;34610;44.096;39.070;2023-01-15T13:08:49;16.15;;;6.20;;
48797;SDS011;34610;44.096;39.070;2023-01-15T13:11:55;15.00;;;6.38;;
48797;SDS011;34610;44.096;39.070;2023-01-15T13:15:00;9.73;;;6.15;;
48797;SDS011;34610;44.096;39.070;2023-01-15T13:21:17;30.55;;;6.97;;
48797;SDS011;34610;44.096;39.070;2023-01-15T13:38:19;16.83;;;6.65;;
48797;SDS011;34610;44.096;39.070;2023-01-15T13:41:26;22.67;;;6.70;;
48797;SDS011;34610;44.096;39.070;2023-01-15T13:45:21;16.38;;;6.97;;
48797;SDS011;34610;44.096;39.070;2023-01-15T13:51:49;15.05;;;6.80;;
48797;SDS011;34610;44.096;39.070;2023-01-15T13:54:54;14.18;;;6.03;;
48797;SDS011;34610;44.096;39.070;2023-01-15T13:58:30;16.70;;;6.93;;
48797;SDS011;34610;44.096;39.070;2023-01-15T14:01:40;18.88;;;6.68;;
48797;SDS011;34610;44.096;39.070;2023-01-15T14:04:44;12.90;;;7.43;;
48797;SDS011;34610;44.096;39.070;2023-01-15T14:07:53;16.25;;;7.70;;
48797;SDS011;34610;44.096;39.070;2023-01-15T14:11:02;18.80;;;8.60;;
48797;SDS011;34610;44.096;39.070;2023-01-15T14:20:56;25.95;;;12.38;;
48797;SDS011;34610;44.096;39.070;2023-01-15T14:31:41;48.05;;;23.67;;
48797;SDS011;34610;44.096;39.070;2023-01-15T14:34:58;51.22;;;23.33;;
48797;SDS011;34610;44.096;39.070;2023-01-15T14:38:07;54.17;;;25.95;;
48797;SDS011;34610;44.096;39.070;2023-01-15T14:45:22;67.55;;;31.48;;
48797;SDS011;34610;44.096;39.070;2023-01-15T14:48:37;66.28;;;30.27;;
48797;SDS011;34610;44.096;39.070;2023-01-15T14:51:47;61.30;;;32.20;;
48797;SDS011;34610;44.096;39.070;2023-01-15T14:54:53;57.35;;;29.65;;
48797;SDS011;34610;44.096;39.070;2023-01-15T14:58:01;60.97;;;31.42;;
48797;SDS011;34610;44.096;39.070;2023-01-15T15:01:18;61.20;;;30.30;;
48797;SDS011;34610;44.096;39.070;2023-01-15T15:04:39;62.63;;;32.28;;
48797;SDS011;34610;44.096;39.070;2023-01-15T15:11:34;57.92;;;29.70;;
48797;SDS011;34610;44.096;39.070;2023-01-15T15:19:04;56.53;;;25.75;;
48797;SDS011;34610;44.096;39.070;2023-01-15T15:22:17;53.30;;;26.23;;
48797;SDS011;34610;44.096;39.070;2023-01-15T15:25:29;51.42;;;25.13;;
48797;SDS011;34610;44.096;39.070;2023-01-15T15:28:36;56.67;;;26.52;;
48797;SDS011;34610;44.096;39.070;2023-01-15T15:31:55;55.78;;;27.00;;
48797;SDS011;34610;44.096;39.070;2023-01-15T15:35:05;59.58;;;26.83;;
48797;SDS011;34610;44.096;39.070;2023-01-15T15:38:28;63.80;;;27.45;;
48797;SDS011;34610;44.096;39.070;2023-01-15T15:45:35;76.40;;;37.85;;
48797;SDS011;34610;44.096;39.070;2023-01-15T15:49:00;92.78;;;41.95;;
48797;SDS011;34610;44.096;39.070;2023-01-15T15:52:22;97.53;;;43.20;;
48797;SDS011;34610;44.096;39.070;2023-01-15T15:55:39;85.78;;;39.10;;
48797;SDS011;34610;44.096;39.070;2023-01-15T15:58:45;89.35;;;41.03;;
48797;SDS011;34610;44.096;39.070;2023-01-15T16:01:54;87.03;;;38.88;;
48797;SDS011;34610;44.096;39.070;2023-01-15T16:08:32;92.13;;;40.33;;
48797;SDS011;34610;44.096;39.070;2023-01-15T16:11:48;91.72;;;41.58;;
48797;SDS011;34610;44.096;39.070;2023-01-15T16:14:56;89.68;;;42.08;;
48797;SDS011;34610;44.096;39.070;2023-01-15T16:18:02;91.70;;;42.40;;
48797;SDS011;34610;44.096;39.070;2023-01-15T16:21:32;100.55;;;42.75;;
48797;SDS011;34610;44.096;39.070;2023-01-15T16:29:04;108.63;;;46.05;;
48797;SDS011;34610;44.096;39.070;2023-01-15T16:32:12;101.70;;;43.38;;
48797;SDS011;34610;44.096;39.070;2023-01-15T16:35:32;101.70;;;45.10;;
48797;SDS011;34610;44.096;39.070;2023-01-15T16:38:45;105.22;;;44.53;;
48797;SDS011;34610;44.096;39.070;2023-01-15T16:45:22;99.63;;;45.92;;
48797;SDS011;34610;44.096;39.070;2023-01-15T16:48:35;88.88;;;42.35;;
48797;SDS011;34610;44.096;39.070;2023-01-15T16:52:02;110.82;;;46.97;;
48797;SDS011;34610;44.096;39.070;2023-01-15T16:55:38;115.88;;;50.15;;
48797;SDS011;34610;44.096;39.070;2023-01-15T16:58:46;117.30;;;47.83;;
48797;SDS011;34610;44.096;39.070;2023-01-15T17:02:08;114.85;;;47.25;;
48797;SDS011;34610;44.096;39.070;2023-01-15T17:05:24;108.25;;;46.45;;
48797;SDS011;34610;44.096;39.070;2023-01-15T17:08:38;101.65;;;45.45;;
48797;SDS011;34610;44.096;39.070;2023-01-15T17:11:49;97.97;;;41.38;;
48797;SDS011;34610;44.096;39.070;2023-01-15T17:14:54;86.10;;;38.78;;
48797;SDS011;34610;44.096;39.070;2023-01-15T17:18:17;76.07;;;36.13;;
48797;SDS011;34610;44.096;39.070;2023-01-15T17:21:28;74.28;;;34.50;;
48797;SDS011;34610;44.096;39.070;2023-01-15T17:24:49;83.07;;;31.08;;
48797;SDS011;34610;44.096;39.070;2023-01-15T17:27:57;66.03;;;32.25;;
48797;SDS011;34610;44.096;39.070;2023-01-15T17:31:12;69.72;;;31.02;;
48797;SDS011;34610;44.096;39.070;2023-01-15T17:34:20;67.13;;;31.35;;
48797;SDS011;34610;44.096;39.070;2023-01-15T17:37:27;71.13;;;29.58;;
48797;SDS011;34610;44.096;39.070;2023-01-15T17:40:47;66.35;;;29.02;;
48797;SDS011;34610;44.096;39.070;2023-01-15T17:47:30;70.20;;;29.75;;
48797;SDS011;34610;44.096;39.070;2023-01-15T17:50:41;58.45;;;26.70;;
48797;SDS011;34610;44.096;39.070;2023-01-15T17:53:48;54.45;;;24.98;;
48797;SDS011;34610;44.096;39.070;2023-01-15T17:57:36;60.33;;;27.23;;
48797;SDS011;34610;44.096;39.070;2023-01-15T18:01:05;65.07;;;29.63;;
48797;SDS011;34610;44.096;39.070;2023-01-15T18:04:47;64.22;;;31.60;;
48797;SDS011;34610;44.096;39.070;2023-01-15T18:08:16;65.90;;;29.52;;
48797;SDS011;34610;44.096;39.070;2023-01-15T18:11:43;72.18;;;33.47;;
48797;SDS011;34610;44.096;39.070;2023-01-15T18:14:54;77.18;;;34.80;;
48797;SDS011;34610;44.096;39.070;2023-01-15T18:18:15;74.03;;;35.13;;
48797;SDS011;34610;44.096;39.070;2023-01-15T18:21:23;76.85;;;34.25;;
48797;SDS011;34610;44.096;39.070;2023-01-15T18:24:39;75.05;;;34.88;;
48797;SDS011;34610;44.096;39.070;2023-01-15T18:27:45;75.65;;;33.03;;
48797;SDS011;34610;44.096;39.070;2023-01-15T18:31:04;58.63;;;28.55;;
48797;SDS011;34610;44.096;39.070;2023-01-15T18:34:20;68.03;;;29.10;;
48797;SDS011;34610;44.096;39.070;2023-01-15T18:37:31;50.97;;;25.33;;
48797;SDS011;34610;44.096;39.070;2023-01-15T18:40:39;50.47;;;24.05;;
48797;SDS011;34610;44.096;39.070;2023-01-15T18:43:43;54.58;;;23.63;;
48797;SDS011;34610;44.096;39.070;2023-01-15T18:47:16;56.03;;;24.60;;
48797;SDS011;34610;44.096;39.070;2023-01-15T18:50:25;58.42;;;24.55;;
48797;SDS011;34610;44.096;39.070;2023-01-15T18:53:29;69.82;;;28.60;;
48797;SDS011;34610;44.096;39.070;2023-01-15T18:56:36;77.35;;;31.20;;
48797;SDS011;34610;44.096;39.070;2023-01-15T18:59:52;83.22;;;32.97;;
48797;SDS011;34610;44.096;39.070;2023-01-15T19:02:59;73.28;;;30.45;;
48797;SDS011;34610;44.096;39.070;2023-01-15T19:06:07;64.50;;;27.90;;
48797;SDS011;34610;44.096;39.070;2023-01-15T19:09:25;53.40;;;25.27;;
48797;SDS011;34610;44.096;39.070;2023-01-15T19:12:29;55.50;;;23.73;;
48797;SDS011;34610;44.096;39.070;2023-01-15T19:19:03;44.83;;;19.55;;
48797;SDS011;34610;44.096;39.070;2023-01-15T19:22:09;42.38;;;19.98;;
48797;SDS011;34610;44.096;39.070;2023-01-15T19:25:40;48.17;;;22.38;;
48797;SDS011;34610;44.096;39.070;2023-01-15T19:37:39;56.22;;;24.20;;
48797;SDS011;34610;44.096;39.070;2023-01-15T19:40:49;55.05;;;23.10;;
48797;SDS011;34610;44.096;39.070;2023-01-15T19:44:00;53.63;;;23.25;;
48797;SDS011;34610;44.096;39.070;2023-01-15T19:47:33;47.38;;;21.48;;
48797;SDS011;34610;44.096;39.070;2023-01-15T19:51:12;45.15;;;21.00;;
48797;SDS011;34610;44.096;39.070;2023-01-15T19:54:17;39.60;;;19.00;;
48797;SDS011;34610;44.096;39.070;2023-01-15T20:01:01;35.60;;;17.60;;
48797;SDS011;34610;44.096;39.070;2023-01-15T20:04:12;29.80;;;14.63;;
48797;SDS011;34610;44.096;39.070;2023-01-15T20:07:21;36.22;;;17.23;;
48797;SDS011;34610;44.096;39.070;2023-01-15T20:10:27;41.63;;;18.33;;
48797;SDS011;34610;44.096;39.070;2023-01-15T20:13:33;36.72;;;18.65;;
48797;SDS011;34610;44.096;39.070;2023-01-15T20:17:05;47.08;;;18.83;;
48797;SDS011;34610;44.096;39.070;2023-01-15T20:20:13;40.22;;;19.38;;
48797;SDS011;34610;44.096;39.070;2023-01-15T20:23:18;50.83;;;23.33;;
48797;SDS011;34610;44.096;39.070;2023-01-15T20:26:23;40.72;;;20.23;;
48797;SDS011;34610;44.096;39.070;2023-01-15T20:29:30;41.28;;;19.52;;
48797;SDS011;34610;44.096;39.070;2023-01-15T20:32:36;36.83;;;15.82;;
48797;SDS011;34610;44.096;39.070;2023-01-15T20:35:42;43.58;;;19.95;;
48797;SDS011;34610;44.096;39.070;2023-01-15T20:38:47;36.45;;;17.83;;
48797;SDS011;34610;44.096;39.070;2023-01-15T20:41:51;40.80;;;17.83;;
48797;SDS011;34610;44.096;39.070;2023-01-15T20:45:14;37.90;;;17.70;;
48797;SDS011;34610;44.096;39.070;2023-01-15T20:48:19;32.28;;;14.77;;
48797;SDS011;34610;44.096;39.070;2023-01-15T20:51:45;33.50;;;16.13;;
48797;SDS011;34610;44.096;39.070;2023-01-15T20:54:50;34.70;;;15.57;;
48797;SDS011;34610;44.096;39.070;2023-01-15T20:57:55;31.85;;;14.70;;
48797;SDS011;34610;44.096;39.070;2023-01-15T21:01:03;35.45;;;15.77;;
48797;SDS011;34610;44.096;39.070;2023-01-15T21:04:09;31.95;;;15.95;;
48797;SDS011;34610;44.096;39.070;2023-01-15T21:07:16;35.25;;;15.65;;
48797;SDS011;34610;44.096;39.070;2023-01-15T21:10:21;30.52;;;14.70;;
48797;SDS011;34610;44.096;39.070;2023-01-15T21:13:28;37.72;;;16.77;;
48797;SDS011;34610;44.096;39.070;2023-01-15T21:16:34;35.17;;;16.05;;
48797;SDS011;34610;44.096;39.070;2023-01-15T21:19:38;31.45;;;15.07;;
48797;SDS011;34610;44.096;39.070;2023-01-15T21:22:45;33.13;;;16.30;;
48797;SDS011;34610;44.096;39.070;2023-01-15T21:25:50;34.03;;;14.73;;